Time;durP1;ratioP1;P1;durP2;ratioP2;P2;SDS_P1;SDS_P2;PMS_P1;PMS_P2;Temp;Humidity;BMP_temperature;BMP_pressure;BME280_temperature;BME280_humidity;BME280_pressure;Samples;Min_cycle;Max_cycle;Signal;HPM_P1;HPM_P2
2023/10/15 00:00:53;;;;;;;7.30;2.85;;;;;;;9.30;100.00;101716.41;5239911;28;20043;-75
2023/10/15 00:03:25;;;;;;;6.72;3.03;;;;;;;9.25;100.00;101720.16;5243571;28;20533;-75
2023/10/15 00:05:57;;;;;;;7.50;3.40;;;;;;;9.26;100.00;101720.97;5242660;28;20454;-72
2023/10/15 00:08:29;;;;;;;6.13;2.97;;;;;;;9.29;100.00;101731.25;5244914;28;20409;-71
2023/10/15 00:11:01;;;;;;;5.25;2.67;;;;;;;9.31;100.00;101745.03;5240439;28;20414;-71
2023/10/15 00:13:33;;;;;;;9.32;3.28;;;;;;;9.30;100.00;101742.53;5242819;28;20045;-72
2023/10/15 00:16:05;;;;;;;9.73;3.72;;;;;;;9.40;100.00;101748.84;5242072;28;20040;-72
2023/10/15 00:18:40;;;;;;;7.45;3.03;;;;;;;9.41;100.00;101751.34;5242718;28;20032;-72
2023/10/15 00:21:12;;;;;;;6.65;2.92;;;;;;;9.46;100.00;101753.66;5241945;28;20017;-72
2023/10/15 00:23:46;;;;;;;6.28;2.90;;;;;;;9.50;100.00;101761.22;5240016;28;20024;-72
2023/10/15 00:26:21;;;;;;;6.18;2.95;;;;;;;9.53;100.00;101747.09;5243972;28;20041;-72
2023/10/15 00:28:55;;;;;;;9.90;3.60;;;;;;;9.61;100.00;101751.81;5243076;28;20029;-72
2023/10/15 00:31:28;;;;;;;7.88;2.83;;;;;;;9.59;100.00;101751.09;5244183;28;20040;-72
2023/10/15 00:34:00;;;;;;;6.72;3.05;;;;;;;9.66;100.00;101752.34;5244515;28;20026;-72
2023/10/15 00:36:33;;;;;;;6.93;3.17;;;;;;;9.70;100.00;101761.69;5244277;28;20048;-72
2023/10/15 00:39:12;;;;;;;8.43;3.20;;;;;;;9.73;100.00;101754.44;5241969;28;20028;-72
2023/10/15 00:41:45;;;;;;;7.15;2.90;;;;;;;9.79;100.00;101757.63;5245021;28;20029;-72
2023/10/15 00:44:17;;;;;;;10.13;2.50;;;;;;;9.80;100.00;101751.44;5238235;28;20041;-71
2023/10/15 00:46:55;;;;;;;6.95;2.85;;;;;;;9.83;100.00;101725.06;5243975;28;20033;-72
2023/10/15 00:49:27;;;;;;;6.78;2.63;;;;;;;9.86;100.00;101744.03;5240259;28;20025;-72
2023/10/15 00:52:04;;;;;;;5.28;2.30;;;;;;;9.91;100.00;101730.63;5237314;28;20630;-72
2023/10/15 00:54:39;;;;;;;4.95;2.20;;;;;;;9.97;100.00;101735.44;5242182;28;20037;-72
2023/10/15 00:57:26;;;;;;;7.00;2.80;;;;;;;9.87;100.00;101739.63;5244781;28;20024;-72
2023/10/15 00:59:58;;;;;;;5.18;2.50;;;;;;;9.88;100.00;101749.97;5242569;28;20020;-72
2023/10/15 01:02:31;;;;;;;5.00;2.40;;;;;;;9.95;100.00;101717.22;5244220;28;20033;-72
2023/10/15 01:05:04;;;;;;;4.28;2.50;;;;;;;9.94;100.00;101727.78;5238991;28;20048;-72
2023/10/15 01:07:46;;;;;;;5.97;2.93;;;;;;;9.91;100.00;101730.63;5241991;28;20394;-72
2023/10/15 01:10:39;;;;;;;7.57;2.53;;;;;;;9.97;100.00;101731.03;5240531;28;20044;-73
2023/10/15 01:13:20;;;;;;;5.60;2.47;;;;;;;9.88;100.00;101729.03;5242529;28;20048;-72
2023/10/15 01:15:58;;;;;;;5.72;2.47;;;;;;;9.77;100.00;101712.38;5241963;28;20032;-72
2023/10/15 01:18:30;;;;;;;4.70;2.63;;;;;;;9.75;100.00;101713.34;5241386;28;20036;-72
2023/10/15 01:21:04;;;;;;;5.55;2.60;;;;;;;9.71;100.00;101719.72;5240703;28;20032;-72
2023/10/15 01:26:23;;;;;;;7.07;2.50;;;;;;;9.67;100.00;101709.56;5238569;28;20044;-72
2023/10/15 01:28:54;;;;;;;8.52;2.95;;;;;;;9.65;100.00;101703.59;5242739;28;20029;-72
2023/10/15 01:31:26;;;;;;;9.30;3.22;;;;;;;9.62;100.00;101704.66;5243834;28;20044;-73
2023/10/15 01:33:58;;;;;;;8.50;2.63;;;;;;;9.61;100.00;101707.34;5240198;28;20065;-72
2023/10/15 01:36:30;;;;;;;10.60;3.00;;;;;;;9.57;100.00;101708.50;5245184;28;20035;-73
2023/10/15 01:39:09;;;;;;;4.13;2.50;;;;;;;9.57;100.00;101706.72;5244460;28;20022;-73
2023/10/15 01:41:42;;;;;;;4.80;2.70;;;;;;;9.56;100.00;101704.22;5234535;28;20036;-73
2023/10/15 01:44:18;;;;;;;5.47;2.95;;;;;;;9.56;100.00;101705.03;5238786;28;20406;-72
2023/10/15 01:47:08;;;;;;;5.57;2.63;;;;;;;9.57;100.00;101711.94;5240330;28;20045;-72
2023/10/15 01:49:40;;;;;;;7.63;2.97;;;;;;;9.58;100.00;101728.47;5239442;28;20021;-72
2023/10/15 01:52:12;;;;;;;5.67;2.60;;;;;;;9.56;100.00;101730.38;5237206;28;20034;-72
2023/10/15 01:54:45;;;;;;;6.22;2.78;;;;;;;9.55;100.00;101724.31;5235098;28;20296;-72
2023/10/15 01:57:17;;;;;;;7.57;2.90;;;;;;;9.62;100.00;101730.81;5238549;28;20048;-71
2023/10/15 01:59:55;;;;;;;8.20;3.40;;;;;;;9.58;100.00;101736.31;5237296;28;20279;-71
2023/10/15 02:02:29;;;;;;;6.15;3.00;;;;;;;9.60;100.00;101722.22;5234218;28;20522;-71
2023/10/15 02:05:02;;;;;;;4.20;2.55;;;;;;;9.56;100.00;101727.75;5233167;28;20029;-74
2023/10/15 02:07:35;;;;;;;7.05;2.88;;;;;;;9.55;100.00;101718.25;5235679;28;20045;-73
2023/10/15 02:10:11;;;;;;;;;;;;;;;10.28;100.00;101710.63;5234478;28;20049;-73
2023/10/15 02:12:43;;;;;;;6.95;3.08;;;;;;;9.54;100.00;101713.94;5236719;28;19916;-72
2023/10/15 02:15:22;;;;;;;6.45;2.85;;;;;;;9.49;100.00;101715.06;5233230;28;20421;-72
2023/10/15 02:17:54;;;;;;;6.20;2.60;;;;;;;9.49;100.00;101711.63;5236685;28;20488;-72
2023/10/15 02:23:18;;;;;;;6.25;2.53;;;;;;;9.48;100.00;101707.34;5242901;28;20802;-73
2023/10/15 02:25:58;;;;;;;6.75;3.00;;;;;;;9.40;100.00;101700.00;5241250;28;20417;-72
2023/10/15 02:28:31;;;;;;;6.15;2.88;;;;;;;9.40;100.00;101702.63;5244842;28;20049;-72
2023/10/15 02:33:34;;;;;;;6.00;2.33;;;;;;;9.40;100.00;101702.63;5239775;28;20456;-74
2023/10/15 02:36:09;;;;;;;6.35;3.33;;;;;;;9.33;100.00;101703.97;5242032;28;20409;-72
2023/10/15 02:38:52;;;;;;;7.82;2.88;;;;;;;9.30;100.00;101700.69;5241486;28;20025;-72
2023/10/15 02:41:41;;;;;;;7.60;2.88;;;;;;;9.31;100.00;101700.59;5240344;28;20478;-75
2023/10/15 02:44:12;;;;;;;6.40;2.80;;;;;;;9.27;100.00;101701.72;5234093;28;20410;-73
2023/10/15 02:46:47;;;;;;;9.82;3.35;;;;;;;9.27;100.00;101699.94;5232685;28;20037;-73
2023/10/15 02:49:19;;;;;;;7.43;3.22;;;;;;;9.30;100.00;101696.31;5233978;28;20041;-74
2023/10/15 02:51:52;;;;;;;6.53;3.28;;;;;;;9.28;100.00;101703.44;5235584;28;21003;-71
2023/10/15 02:54:36;;;;;;;6.57;3.30;;;;;;;9.32;100.00;101699.69;5232164;28;20056;-72
2023/10/15 02:57:15;;;;;;;7.32;3.22;;;;;;;9.31;100.00;101699.75;5232144;28;20467;-75
2023/10/15 02:59:52;;;;;;;6.85;3.40;;;;;;;9.32;100.00;101743.25;5233446;28;20036;-73
2023/10/15 03:02:25;;;;;;;7.70;3.17;;;;;;;9.34;100.00;101757.94;5233604;28;20467;-73
2023/10/15 03:05:06;;;;;;;5.57;2.50;;;;;;;9.42;100.00;101744.34;5233968;28;20029;-74
2023/10/15 03:07:42;;;;;;;8.00;2.70;;;;;;;9.43;100.00;101738.16;5232755;28;20025;-73
2023/10/15 03:10:21;;;;;;;7.25;2.58;;;;;;;9.52;100.00;101731.50;5234098;28;20037;-73
2023/10/15 03:12:53;;;;;;;8.80;3.42;;;;;;;9.58;100.00;101746.78;5234458;28;20044;-74
2023/10/15 03:15:25;;;;;;;4.53;2.92;;;;;;;9.62;100.00;101763.97;5235825;28;20097;-74
2023/10/15 03:17:57;;;;;;;7.32;2.85;;;;;;;9.70;100.00;101757.28;5233780;28;20038;-73
2023/10/15 03:20:39;;;;;;;5.68;3.00;;;;;;;9.68;100.00;101766.19;5234247;28;20033;-73
2023/10/15 03:23:16;;;;;;;5.70;3.22;;;;;;;9.74;100.00;101769.22;5234915;28;20391;-73
2023/10/15 03:25:57;;;;;;;5.50;2.97;;;;;;;9.88;100.00;101772.69;5230800;28;20033;-75
2023/10/15 03:28:29;;;;;;;6.03;2.65;;;;;;;9.79;100.00;101774.16;5234924;28;20033;-73
2023/10/15 03:31:01;;;;;;;5.85;2.40;;;;;;;9.85;100.00;101759.81;5233160;28;20059;-74
2023/10/15 03:33:35;;;;;;;7.05;2.80;;;;;;;9.79;100.00;101771.53;5234104;28;20025;-73
2023/10/15 03:36:12;;;;;;;4.68;2.45;;;;;;;9.92;100.00;101756.66;5235559;28;20379;-72
2023/10/15 03:38:47;;;;;;;4.95;2.28;;;;;;;9.81;100.00;101767.06;5239878;28;20045;-74
2023/10/15 03:41:21;;;;;;;5.10;2.00;;;;;;;9.88;100.00;101760.44;5240702;28;20399;-73
2023/10/15 03:43:53;;;;;;;5.13;2.00;;;;;;;9.88;100.00;101772.69;5240069;28;20054;-73
2023/10/15 03:46:25;;;;;;;3.50;1.80;;;;;;;9.90;100.00;101757.75;5240081;28;20041;-72
2023/10/15 03:48:58;;;;;;;6.68;1.80;;;;;;;9.91;100.00;101762.84;5233517;28;20034;-73
2023/10/15 03:51:29;;;;;;;4.35;2.00;;;;;;;9.91;100.00;101769.88;5234402;28;20037;-73
2023/10/15 03:54:06;;;;;;;5.50;2.20;;;;;;;9.89;100.00;101764.75;5236141;28;20482;-73
2023/10/15 03:56:43;;;;;;;3.45;1.60;;;;;;;9.87;100.00;101771.03;5232614;28;20435;-73
2023/10/15 03:59:15;;;;;;;4.80;1.83;;;;;;;9.86;100.00;101782.44;5235527;28;20029;-72
2023/10/15 04:01:49;;;;;;;4.35;1.85;;;;;;;9.93;100.00;101791.56;5240860;28;20459;-73
2023/10/15 04:04:21;;;;;;;4.70;1.95;;;;;;;9.91;100.00;101799.50;5235759;28;20025;-73
2023/10/15 04:07:02;;;;;;;5.18;2.10;;;;;;;9.93;100.00;101800.25;5234314;28;20044;-73
2023/10/15 04:09:34;;;;;;;5.97;2.28;;;;;;;9.92;100.00;101806.41;5231164;28;20036;-73
2023/10/15 04:12:06;;;;;;;4.13;1.65;;;;;;;9.93;100.00;101799.41;5232508;28;20032;-72
2023/10/15 04:14:43;;;;;;;4.90;1.80;;;;;;;9.90;100.00;101810.91;5237687;28;20104;-73
2023/10/15 04:17:15;;;;;;;3.83;1.80;;;;;;;9.92;100.00;101814.25;5236054;28;20390;-72
2023/10/15 04:19:47;;;;;;;4.05;1.80;;;;;;;9.91;100.00;101801.28;5238446;28;20033;-73
2023/10/15 04:22:18;;;;;;;4.55;1.77;;;;;;;9.93;100.00;101799.41;5238905;28;20029;-73
2023/10/15 04:24:50;;;;;;;7.13;2.45;;;;;;;9.93;100.00;101794.19;5235856;28;20033;-73
2023/10/15 04:27:26;;;;;;;3.90;1.83;;;;;;;9.91;100.00;101807.34;5233624;28;20033;-73
2023/10/15 04:30:00;;;;;;;4.65;1.63;;;;;;;9.84;100.00;101774.69;5236721;28;20022;-73
2023/10/15 04:35:18;;;;;;;2.60;1.60;;;;;;;9.67;100.00;101780.22;5237669;28;20462;-72
2023/10/15 04:37:53;;;;;;;4.35;1.90;;;;;;;9.69;100.00;101773.09;5237187;28;20037;-72
2023/10/15 04:40:25;;;;;;;5.13;2.10;;;;;;;9.68;100.00;101787.09;5238011;28;20044;-73
2023/10/15 04:42:59;;;;;;;6.13;2.33;;;;;;;9.68;100.00;101784.50;5238673;28;20065;-74
2023/10/15 04:48:15;;;;;;;3.90;1.95;;;;;;;9.68;100.00;101777.47;5236224;28;20056;-72
2023/10/15 04:50:47;;;;;;;4.20;1.80;;;;;;;9.72;100.00;101765.88;5234551;28;20049;-73
2023/10/15 04:55:52;;;;;;;4.57;1.73;;;;;;;9.75;100.00;101752.59;5236106;28;20041;-74
2023/10/15 04:58:30;;;;;;;6.93;1.60;;;;;;;9.77;100.00;101731.53;5238001;28;20033;-72
2023/10/15 05:01:04;;;;;;;3.17;1.35;;;;;;;9.74;100.00;101748.31;5234738;28;20387;-75
2023/10/15 05:03:38;;;;;;;4.38;1.58;;;;;;;9.72;100.00;101749.34;5236610;28;20053;-72
2023/10/15 05:06:12;;;;;;;2.73;1.10;;;;;;;9.73;100.00;101735.31;5228724;28;20048;-75
2023/10/15 05:08:47;;;;;;;2.30;1.00;;;;;;;9.68;100.00;101740.00;5235490;28;20414;-74
2023/10/15 05:11:21;;;;;;;3.40;1.08;;;;;;;9.69;100.00;101746.91;5234925;28;20565;-73
2023/10/15 05:13:53;;;;;;;3.30;1.20;;;;;;;9.75;100.00;101743.91;5235968;28;20052;-73
2023/10/15 05:16:25;;;;;;;4.15;1.27;;;;;;;9.70;100.00;101746.00;5236063;28;20037;-73
2023/10/15 05:18:58;;;;;;;3.85;1.50;;;;;;;9.64;100.00;101749.84;5235332;28;20505;-74
2023/10/15 05:21:30;;;;;;;3.35;1.20;;;;;;;9.60;100.00;101758.00;5236297;28;20052;-72
2023/10/15 05:24:02;;;;;;;4.43;1.20;;;;;;;9.61;100.00;101773.59;5237882;28;20104;-74
2023/10/15 05:26:34;;;;;;;4.63;1.52;;;;;;;9.67;100.00;101780.22;5237879;28;20533;-73
2023/10/15 05:29:06;;;;;;;7.72;1.67;;;;;;;9.48;100.00;101819.81;5236191;28;20045;-72
2023/10/15 05:31:38;;;;;;;3.60;1.42;;;;;;;9.19;100.00;101809.44;5233550;28;20151;-73
2023/10/15 05:34:10;;;;;;;3.47;1.25;;;;;;;9.09;100.00;101812.72;5237621;28;20034;-73
2023/10/15 05:36:42;;;;;;;4.13;1.20;;;;;;;9.09;100.00;101823.16;5225751;28;20037;-72
2023/10/15 05:39:18;;;;;;;2.97;1.10;;;;;;;9.00;100.00;101833.28;5235089;28;20455;-72
2023/10/15 05:41:52;;;;;;;3.85;1.00;;;;;;;8.91;100.00;101844.31;5235885;28;20418;-73
2023/10/15 05:44:23;;;;;;;3.75;0.88;;;;;;;8.87;100.00;101839.38;5233471;28;20487;-72
2023/10/15 05:46:55;;;;;;;3.20;1.00;;;;;;;8.82;100.00;101844.84;5235337;28;20029;-72
2023/10/15 05:49:27;;;;;;;4.47;1.00;;;;;;;8.76;100.00;101838.25;5232820;28;20045;-73
2023/10/15 05:51:59;;;;;;;1.70;0.70;;;;;;;8.79;100.00;101834.63;5234501;28;20071;-72
2023/10/15 05:54:34;;;;;;;2.08;0.70;;;;;;;8.78;100.00;101825.09;5236295;28;20120;-72
2023/10/15 05:57:06;;;;;;;1.42;0.60;;;;;;;8.78;100.00;101825.91;5239457;28;20047;-73
2023/10/15 05:59:38;;;;;;;1.83;0.68;;;;;;;8.85;100.00;101808.09;5235362;28;20029;-72
2023/10/15 06:02:10;;;;;;;4.90;0.80;;;;;;;8.87;100.00;101813.25;5231680;28;20037;-73
2023/10/15 06:04:43;;;;;;;3.05;0.80;;;;;;;8.89;100.00;101816.59;5231602;28;20033;-72
2023/10/15 06:07:15;;;;;;;3.25;1.20;;;;;;;8.84;100.00;101816.03;5233536;28;20041;-72
2023/10/15 06:09:50;;;;;;;3.50;1.00;;;;;;;8.93;100.00;101828.53;5235306;28;20033;-72
2023/10/15 06:12:22;;;;;;;1.67;0.70;;;;;;;8.93;100.00;101826.75;5233884;28;20033;-73
2023/10/15 06:14:54;;;;;;;3.60;0.98;;;;;;;9.00;100.00;101829.81;5231826;28;20326;-71
2023/10/15 06:17:26;;;;;;;3.10;0.82;;;;;;;8.99;100.00;101818.53;5239364;28;20047;-71
2023/10/15 06:19:58;;;;;;;1.85;0.80;;;;;;;9.07;100.00;101840.75;5236846;28;20048;-74
2023/10/15 06:22:30;;;;;;;2.90;1.00;;;;;;;9.10;100.00;101837.94;5238215;28;20030;-72
2023/10/15 06:25:04;;;;;;;5.32;0.90;;;;;;;9.11;100.00;101845.69;5238343;28;20543;-73
2023/10/15 06:27:36;;;;;;;3.20;0.90;;;;;;;9.12;100.00;101831.66;5237483;28;20462;-72
2023/10/15 06:30:14;;;;;;;3.28;1.00;;;;;;;9.17;100.00;101847.91;5231791;28;20040;-72
2023/10/15 06:32:47;;;;;;;2.75;0.70;;;;;;;9.14;100.00;101850.72;5231682;28;20048;-73
2023/10/15 06:35:20;;;;;;;;;;;;;;;9.87;100.00;101850.38;5235380;28;20045;-75
2023/10/15 06:37:55;;;;;;;2.65;0.90;;;;;;;9.22;100.00;101831.94;5229425;28;19917;-71
2023/10/15 06:40:28;;;;;;;2.03;0.85;;;;;;;9.18;100.00;101841.75;5229412;28;20470;-73
2023/10/15 06:43:00;;;;;;;2.72;0.75;;;;;;;9.18;100.00;101844.34;5232670;28;20447;-73
2023/10/15 06:45:32;;;;;;;2.22;0.90;;;;;;;9.07;100.00;101840.75;5232546;28;20033;-75
2023/10/15 06:48:04;;;;;;;3.50;1.00;;;;;;;9.11;100.00;101847.47;5229889;28;20386;-72
2023/10/15 06:50:36;;;;;;;2.20;0.98;;;;;;;9.13;100.00;101842.94;5231268;28;20032;-72
2023/10/15 06:53:08;;;;;;;5.15;1.42;;;;;;;9.11;100.00;101835.22;5226079;28;20349;-72
2023/10/15 06:55:45;;;;;;;2.28;0.95;;;;;;;9.18;100.00;101839.13;5221420;28;20538;-75
2023/10/15 06:58:17;;;;;;;2.55;0.98;;;;;;;9.18;100.00;101835.69;5230684;28;20507;-72
2023/10/15 07:00:49;;;;;;;2.03;0.80;;;;;;;9.22;100.00;101845.84;5236075;28;20017;-72
2023/10/15 07:03:21;;;;;;;4.60;1.15;;;;;;;9.18;100.00;101849.59;5234432;28;20044;-73
2023/10/15 07:05:53;;;;;;;3.63;0.90;;;;;;;9.22;100.00;101863.31;5234195;28;20067;-72
2023/10/15 07:08:25;;;;;;;4.53;1.40;;;;;;;9.25;100.00;101865.75;5234042;28;20035;-74
2023/10/15 07:10:59;;;;;;;2.63;1.02;;;;;;;9.34;100.00;101873.00;5233410;28;20032;-72
2023/10/15 07:13:32;;;;;;;4.13;1.30;;;;;;;9.33;100.00;101871.31;5231900;28;20045;-73
2023/10/15 07:16:04;;;;;;;3.58;1.20;;;;;;;9.43;100.00;101872.44;5226746;28;20041;-72
2023/10/15 07:18:36;;;;;;;3.33;0.80;;;;;;;9.55;100.00;101875.19;5236950;28;20620;-74
2023/10/15 07:21:08;;;;;;;6.38;1.58;;;;;;;9.51;100.00;101874.56;5233120;28;20017;-73
2023/10/15 07:23:40;;;;;;;3.67;1.10;;;;;;;9.56;100.00;101884.72;5233428;28;20046;-72
2023/10/15 07:26:12;;;;;;;4.97;1.38;;;;;;;9.59;100.00;101874.06;5234150;28;20037;-72
2023/10/15 07:28:44;;;;;;;4.38;1.50;;;;;;;9.72;100.00;101888.84;5242407;28;20022;-73
2023/10/15 07:31:16;;;;;;;3.33;1.45;;;;;;;9.77;100.00;101903.41;5241583;28;20044;-72
2023/10/15 07:33:49;;;;;;;3.72;1.30;;;;;;;9.86;100.00;101903.69;5243338;28;20029;-72
2023/10/15 07:36:22;;;;;;;3.83;1.25;;;;;;;9.83;100.00;101916.13;5232412;28;20041;-75
2023/10/15 07:38:56;;;;;;;4.80;1.40;;;;;;;9.85;100.00;101916.84;5240334;28;20040;-73
2023/10/15 07:41:28;;;;;;;3.25;1.30;;;;;;;9.82;100.00;101917.91;5236987;28;20112;-72
2023/10/15 07:44:01;;;;;;;5.00;1.50;;;;;;;9.76;100.00;101915.66;5237391;28;20061;-72
2023/10/15 07:46:34;;;;;;;2.95;1.38;;;;;;;9.71;100.00;101902.06;5229319;28;20068;-73
2023/10/15 07:49:06;;;;;;;3.53;1.27;;;;;;;9.74;100.00;101891.38;5233897;28;20393;-72
2023/10/15 07:51:39;;;;;;;3.75;1.30;;;;;;;9.70;100.00;101882.91;5241082;28;20037;-72
2023/10/15 07:54:11;;;;;;;4.77;1.20;;;;;;;9.84;100.00;101902.91;5244423;28;20029;-72
2023/10/15 07:56:44;;;;;;;5.13;1.40;;;;;;;9.87;100.00;101907.13;5239989;28;20292;-73
2023/10/15 07:59:15;;;;;;;5.32;1.63;;;;;;;9.97;100.00;101916.06;5242448;28;20032;-72
2023/10/15 08:01:47;;;;;;;5.03;1.40;;;;;;;10.02;100.00;101913.97;5246678;28;20380;-72
2023/10/15 08:04:19;;;;;;;5.72;1.25;;;;;;;10.10;100.00;101921.34;5246599;28;20360;-74
2023/10/15 08:06:52;;;;;;;6.05;1.20;;;;;;;10.06;100.00;101917.25;5244482;28;20066;-72
2023/10/15 08:09:23;;;;;;;3.20;1.10;;;;;;;10.18;100.00;101932.97;5241655;28;20025;-74
2023/10/15 08:11:56;;;;;;;4.10;1.08;;;;;;;10.19;100.00;101926.81;5244294;28;20462;-73
2023/10/15 08:14:27;;;;;;;5.00;1.42;;;;;;;10.27;100.00;101943.84;5246524;28;20044;-73
2023/10/15 08:16:59;;;;;;;4.70;1.60;;;;;;;10.37;100.00;101945.72;5244604;28;20040;-73
2023/10/15 08:19:32;;;;;;;4.72;1.08;;;;;;;10.30;100.00;101948.84;5246498;28;20538;-74
2023/10/15 08:22:04;;;;;;;4.05;1.30;;;;;;;10.34;100.00;101960.81;5243398;28;20033;-73
2023/10/15 08:24:38;;;;;;;5.32;1.30;;;;;;;10.27;100.00;101970.88;5246196;28;20033;-72
2023/10/15 08:27:13;;;;;;;2.88;0.98;;;;;;;10.26;100.00;101963.94;5244290;28;20033;-73
2023/10/15 08:29:45;;;;;;;3.88;1.10;;;;;;;10.27;100.00;101973.50;5246854;28;20032;-73
2023/10/15 08:32:17;;;;;;;4.55;1.00;;;;;;;10.30;100.00;101990.75;5241771;28;20033;-73
2023/10/15 08:34:49;;;;;;;5.03;1.42;;;;;;;10.32;100.00;101996.75;5242407;28;20037;-72
2023/10/15 08:37:22;;;;;;;3.50;1.10;;;;;;;10.26;100.00;102000.59;5242387;28;20029;-73
2023/10/15 08:39:54;;;;;;;;;;;;;;;10.97;100.00;102015.13;5243774;28;20471;-73
2023/10/15 08:42:30;;;;;;;4.65;1.08;;;;;;;10.41;100.00;102017.09;5241068;28;19924;-73
2023/10/15 08:45:04;;;;;;;5.38;1.25;;;;;;;10.35;100.00;102020.97;5241150;28;20037;-73
2023/10/15 08:47:36;;;;;;;5.78;1.25;;;;;;;10.21;100.00;102016.59;5241491;28;20037;-73
2023/10/15 08:50:10;;;;;;;3.92;1.05;;;;;;;10.28;100.00;102027.53;5225824;28;20056;-73
2023/10/15 08:52:45;;;;;;;4.68;1.10;;;;;;;10.22;100.00;102028.72;5241550;28;20044;-73
2023/10/15 08:55:17;;;;;;;5.47;1.25;;;;;;;10.31;100.00;102035.22;5246793;28;20037;-73
2023/10/15 08:57:54;;;;;;;4.87;1.20;;;;;;;10.32;100.00;102047.38;5242660;28;20037;-73
2023/10/15 09:00:26;;;;;;;3.05;0.93;;;;;;;10.11;100.00;102053.94;5240043;28;20041;-73
2023/10/15 09:03:00;;;;;;;4.53;1.25;;;;;;;10.17;100.00;102053.56;5242715;28;20037;-73
2023/10/15 09:05:33;;;;;;;3.05;1.10;;;;;;;10.22;100.00;102057.53;5242639;28;20032;-73
2023/10/15 09:08:09;;;;;;;5.05;1.50;;;;;;;10.16;100.00;102064.97;5238456;28;20036;-73
2023/10/15 09:10:42;;;;;;;2.83;1.00;;;;;;;10.07;100.00;102068.16;5234351;28;20030;-71
2023/10/15 09:13:18;;;;;;;3.47;1.10;;;;;;;10.14;100.00;102072.06;5243913;28;20390;-73
2023/10/15 09:15:52;;;;;;;3.25;1.00;;;;;;;10.06;100.00;102074.34;5242356;28;20383;-73
2023/10/15 09:18:27;;;;;;;1.85;0.80;;;;;;;10.19;100.00;102076.09;5245252;28;20050;-73
2023/10/15 09:20:59;;;;;;;4.30;1.42;;;;;;;10.17;100.00;102085.81;5243028;28;20042;-73
2023/10/15 09:23:36;;;;;;;2.47;1.15;;;;;;;10.26;100.00;102087.03;5242226;28;20037;-72
2023/10/15 09:26:09;;;;;;;3.88;1.35;;;;;;;10.20;100.00;102082.16;5238204;28;20057;-73
2023/10/15 09:28:42;;;;;;;3.20;1.13;;;;;;;10.29;100.00;102086.84;5245589;28;20041;-73
2023/10/15 09:31:13;;;;;;;3.95;1.10;;;;;;;10.27;100.00;102067.78;5240098;28;20033;-73
2023/10/15 09:33:45;;;;;;;3.15;1.13;;;;;;;10.32;100.00;102078.78;5242093;28;20043;-72
2023/10/15 09:36:17;;;;;;;3.47;0.82;;;;;;;10.38;100.00;102086.28;5238677;28;20040;-72
2023/10/15 09:38:53;;;;;;;2.15;0.80;;;;;;;10.52;100.00;102079.28;5248854;28;20029;-73
2023/10/15 09:41:26;;;;;;;5.22;1.20;;;;;;;10.73;100.00;102083.13;5241808;28;20021;-73
2023/10/15 09:43:58;;;;;;;3.03;0.70;;;;;;;10.68;100.00;102087.81;5242292;28;20033;-73
2023/10/15 09:46:30;;;;;;;4.72;1.08;;;;;;;10.62;100.00;102093.47;5245052;28;20379;-73
2023/10/15 09:49:04;;;;;;;3.47;1.05;;;;;;;10.66;100.00;102090.56;5245037;28;20091;-73
2023/10/15 09:51:40;;;;;;;2.20;1.00;;;;;;;10.79;100.00;102097.59;5242515;28;20033;-73
2023/10/15 09:54:14;;;;;;;3.42;0.82;;;;;;;10.66;100.00;102094.97;5242599;28;20048;-73
2023/10/15 09:56:47;;;;;;;3.72;1.02;;;;;;;10.73;100.00;102101.50;5240934;28;20028;-73
2023/10/15 09:59:20;;;;;;;3.15;1.30;;;;;;;10.81;100.00;102100.97;5248459;28;20043;-73
2023/10/15 10:01:54;;;;;;;4.53;1.23;;;;;;;10.85;100.00;102105.91;5244906;28;20026;-73
2023/10/15 10:04:48;;;;;;;1.95;0.75;;;;;;;11.02;100.00;102103.94;5242620;28;20029;-72
2023/10/15 10:07:26;;;;;;;;;;;;;;;11.64;100.00;102104.94;5238798;28;20100;-72
2023/10/15 10:10:22;;;;;;;2.28;0.90;;;;;;;11.40;100.00;102104.00;5242012;28;19913;-73
2023/10/15 10:13:22;;;;;;;1.63;0.70;;;;;;;11.29;100.00;102111.75;5241426;28;20036;-73
2023/10/15 10:15:57;;;;;;;3.05;0.75;;;;;;;11.17;100.00;102126.53;5241451;28;20897;-73
2023/10/15 10:18:33;;;;;;;2.53;0.70;;;;;;;11.10;100.00;102120.88;5241665;28;20159;-74
2023/10/15 10:21:11;;;;;;;3.60;0.70;;;;;;;11.29;100.00;102119.63;5242804;28;20026;-73
2023/10/15 10:23:43;;;;;;;2.33;0.60;;;;;;;11.05;100.00;102125.56;5241435;28;20033;-73
2023/10/15 10:26:17;;;;;;;2.30;0.73;;;;;;;11.19;100.00;102125.50;5242813;28;20056;-73
2023/10/15 10:28:50;;;;;;;4.18;0.80;;;;;;;11.05;100.00;102127.34;5233130;28;20037;-73
2023/10/15 10:31:22;;;;;;;3.95;1.17;;;;;;;11.14;100.00;102135.47;5241720;28;20026;-73
2023/10/15 10:33:55;;;;;;;6.47;1.55;;;;;;;11.00;100.00;102142.56;5244991;28;20115;-73
2023/10/15 10:36:29;;;;;;;4.78;1.05;;;;;;;11.05;100.00;102137.84;5241847;28;20033;-73
2023/10/15 10:39:15;;;;;;;;;;;;;;;11.81;100.00;102137.91;5240967;28;20040;-73
2023/10/15 10:41:54;;;;;;;2.85;0.77;;;;;;;11.31;100.00;102136.94;5244441;28;19917;-73
2023/10/15 10:44:26;;;;;;;4.97;1.00;;;;;;;11.35;100.00;102135.78;5237310;28;20084;-73
2023/10/15 10:47:15;;;;;;;6.00;1.10;;;;;;;11.45;100.00;102139.50;5243097;28;20033;-73
2023/10/15 10:49:55;;;;;;;6.20;1.17;;;;;;;11.65;100.00;102138.13;5233454;28;20033;-73
2023/10/15 10:52:29;;;;;;;4.60;1.10;;;;;;;11.57;100.00;102140.44;5240759;28;20986;-73
2023/10/15 10:55:32;;;;;;;3.83;0.80;;;;;;;11.87;100.00;102140.16;5239045;28;20029;-72
2023/10/15 10:58:08;;;;;;;4.28;1.00;;;;;;;11.79;100.00;102137.19;5242092;28;20056;-73
2023/10/15 11:00:40;;;;;;;4.25;1.10;;;;;;;11.72;100.00;102146.44;5241122;28;20493;-73
2023/10/15 11:03:12;;;;;;;2.67;0.80;;;;;;;11.75;100.00;102145.38;5241886;28;20033;-73
2023/10/15 11:05:45;;;;;;;2.85;1.00;;;;;;;11.72;100.00;102130.66;5231922;28;20041;-74
2023/10/15 11:08:21;;;;;;;4.20;0.80;;;;;;;11.74;100.00;102139.25;5242139;28;20024;-73
2023/10/15 11:10:53;;;;;;;4.40;0.82;;;;;;;11.53;100.00;102152.09;5241581;28;20037;-74
2023/10/15 11:13:28;;;;;;;3.42;0.70;;;;;;;11.62;100.00;102151.44;5240688;28;20028;-73
2023/10/15 11:16:00;;;;;;;6.32;1.40;;;;;;;11.51;100.00;102153.97;5241728;28;20040;-74
2023/10/15 11:18:35;;;;;;;4.85;1.27;;;;;;;11.56;100.00;102153.69;5240269;28;20402;-73
2023/10/15 11:21:09;;;;;;;3.72;0.90;;;;;;;11.56;100.00;102143.19;5243692;28;20025;-73
2023/10/15 11:23:40;;;;;;;4.00;0.70;;;;;;;11.44;100.00;102134.34;5241625;28;20029;-73
2023/10/15 11:26:13;;;;;;;2.03;0.75;;;;;;;11.56;100.00;102153.69;5241600;28;20039;-74
2023/10/15 11:28:45;;;;;;;2.97;0.85;;;;;;;11.73;100.00;102142.00;5235565;28;20036;-73
2023/10/15 11:31:17;;;;;;;3.42;0.90;;;;;;;11.73;100.00;102147.25;5235828;28;20530;-73
2023/10/15 11:33:49;;;;;;;2.38;0.70;;;;;;;11.65;100.00;102166.16;5240762;28;20041;-73
2023/10/15 11:36:23;;;;;;;3.58;1.00;;;;;;;11.69;100.00;102160.59;5238770;28;20044;-73
2023/10/15 11:38:54;;;;;;;4.47;1.35;;;;;;;11.68;100.00;102165.97;5229215;28;20038;-73
2023/10/15 11:41:30;;;;;;;3.55;1.17;;;;;;;11.72;100.00;102172.69;5239740;28;20051;-73
2023/10/15 11:44:08;;;;;;;2.88;1.17;;;;;;;11.78;100.00;102161.78;5243633;28;20056;-73
2023/10/15 11:46:40;;;;;;;3.65;0.70;;;;;;;11.86;100.00;102164.72;5240954;28;20051;-73
2023/10/15 11:49:12;;;;;;;3.90;0.70;;;;;;;11.95;100.00;102155.38;5237617;28;20033;-73
2023/10/15 11:51:44;;;;;;;2.60;0.90;;;;;;;12.22;100.00;102149.13;5235884;28;20041;-73
2023/10/15 11:54:16;;;;;;;2.30;0.75;;;;;;;12.38;100.00;102150.53;5240563;28;20319;-73
2023/10/15 11:56:50;;;;;;;5.15;0.82;;;;;;;12.46;100.00;102144.72;5240751;28;20040;-72
2023/10/15 11:59:22;;;;;;;2.08;0.85;;;;;;;12.49;100.00;102147.13;5240161;28;20402;-74
2023/10/15 12:01:54;;;;;;;3.97;1.07;;;;;;;12.79;100.00;102141.44;5240968;28;20036;-73
2023/10/15 12:04:26;;;;;;;3.15;1.40;;;;;;;12.86;100.00;102147.94;5241265;28;20299;-73
2023/10/15 12:06:58;;;;;;;4.03;1.10;;;;;;;12.85;100.00;102150.69;5239309;28;20501;-73
2023/10/15 12:09:32;;;;;;;4.05;1.00;;;;;;;12.82;100.00;102146.47;5237672;28;20037;-73
2023/10/15 12:12:03;;;;;;;;;;;;;;;13.69;100.00;102154.88;5241620;28;20471;-74